ASN logo
Last updated: 3 December 2021
Statuts:Préliminaire
Date:dimanche 10 mai 2015
Heure:11:57
Type/Sous-type:Silhouette image of generic MA60 model; specific model in this crash may look slightly different
Xian MA60
Compagnie:Joy Air
Immatriculation: B-3476
Numéro de série: 0805
Année de Fabrication: 2011
Moteurs: 2 Pratt & Whitney Canada PW127J
Equipage:victimes: 0 / à bord: 7
Passagers:victimes: 0 / à bord: 45
Total:victimes: 0 / à bord: 52
Dégats de l'appareil: Perte Totale
Conséquences: Written off (damaged beyond repair)
Lieu de l'accident:Fuzhou Changle International Airport (FOC) (   Chine)
Phase de vol: A l'atterrissage (LDG)
Nature:Transport de Passagers Nat.
Aéroport de départ:Yiwu Airport (YIW/ZSYW), Chine
Aéroport de destination:Fuzhou Changle International Airport (FOC/ZSFZ), Chine
Numéro de vol:JR1529
Détails:
A Xian MA60, B-3476, sustained substantial damage in a landing accident at Fuzhou Airport (FOC), China.
The aircraft operated Joy Air flight JR1529 from Hefei to Fuzhou via Yiwu, China. Upon landing, the plane suffered a runway excursion. The wings of the plane were twisted, causing the engines to strike the ground.
Three passengers sustained minor injuries.

Sources:
» wcarn.com

METAR Weather report:
03:00 UTC / 11:00 local time:
ZSFZ 100300Z 02006MPS 9999 BKN020 OVC033 22/17 Q1015 NOSIG

04:00 UTC / 12:00 local time:
ZSFZ 100400Z 03006MPS 360V060 9999 SCT017 OVC033 23/17 Q1014 NOSIG
Winds 30 degrees at 12 knots, varying between 360 and 60 degrees; Visibility 10+ km; scattered clouds at 1700 feet AGL; overcast cloud deck at 3300 feet AGL; Temperature: 23°; Dewpoint: 17°C


Photos

Add your photo of this accident or aircraft

Video, social media

Plan
Ce plan montre l'aéroport de départ ainsi que la supposée destination du vol. La ligne fixe reliant les deux aéroports n'est pas le plan de vol exact.
La distance entre Yiwu Airport et Fuzhou Changle International Airport est de 378 km (237 miles).

Les informations ci-dessus ne représentent pas l'opinion de la 'Flight Safety Foundation' ou de 'Aviation Safety Network' sur les causes de l'accident. Ces informations prélimimaires sont basées sur les faits tel qu'ils sont connus à ce jour.
languages: languages

Share